Country
Station

 

Weather  for  Hiroshima Airport  -  Japan    Japan

  
14 °C (57 °F)
    
 
 

Current METAR for Hiroshima Airport is :

RJOA 161300Z 06004KT CAVOK 14/05 Q1023

 

This is a report for Hiroshima Airport - Japan.
 
The report was made 9 minutes ago, at 13:00 UTC .
The wind was blowing at a speed of 2.1 meters per second (4.6 miles per hour) from east/northeast (060°).
 
The temperature was 14 °C (57 °F), with a dew-point at 5 °C (41 °F).
The atmospheric pressure was 1023 hPa (30.21 inHg).
The relative humidity was 54.6%.
 
There were no clouds below 1500 meter (5000 feet) and no cumulonimbus clouds.
 
The overall visibility was greater than 10 kilometers (6.2 miles).
 

 
 
 
 

Country :   A   B   C   D   E   F   G   H   I   J   K   L   M   N   O   P   Q   R   S   T   U   V   W   Y   Z

 

Site Info  |  Disclaimer  |  Credits  |  Privacy
Contact us  |  Add to favorites
© 2013-2019 METARs - All rights reserved